GLD1186 SBBG-SBPK
Flight info
| Callsign | GLD1186 |
|---|---|
| Flight time | 0h 40m |
| Altitude | 9500 |
| Route | 3123S546W 3123S546W 3129S5341W 3130S5212W 3142S5219W |
| Aircraft | C208/M-SDFGIRY/S |
Departure
| Time | 2026-04-26 20:42 |
|---|---|
| Airport | Comandante Gustavo Kraemer Airport (SBBG) |
Arrival
| Time | 2026-04-26 21:23 |
|---|---|
| Airport | João Simões Lopes Neto International Airport (SBPK) |
| Time | Latitude | Longitude | Altitude | Speed | Heading |
|---|---|---|---|---|---|
| 2026-04-26 20:16 | -31.38837 | -54.11183 | 597 ft | 0 kts | 315° |
| 2026-04-26 20:20 | -31.38847 | -54.11171 | 594 ft | 2 kts | 315° |
| 2026-04-26 20:20 | -31.38848 | -54.11170 | 595 ft | 0 kts | 315° |
| 2026-04-26 20:35 | -31.38844 | -54.11183 | 597 ft | 5 kts | 282° |
| 2026-04-26 20:35 | -31.38858 | -54.11196 | 599 ft | 1 kts | 149° |
| 2026-04-26 20:35 | -31.38865 | -54.11186 | 597 ft | 5 kts | 109° |
| 2026-04-26 20:35 | -31.38875 | -54.11138 | 597 ft | 6 kts | 135° |
| 2026-04-26 20:36 | -31.38883 | -54.11130 | 596 ft | 0 kts | 139° |
| 2026-04-26 20:37 | -31.38904 | -54.11108 | 596 ft | 9 kts | 135° |
| 2026-04-26 20:37 | -31.38909 | -54.11041 | 595 ft | 9 kts | 58° |
| 2026-04-26 20:38 | -31.38869 | -54.10993 | 595 ft | 8 kts | 45° |
| 2026-04-26 20:38 | -31.38834 | -54.10952 | 595 ft | 7 kts | 44° |
| 2026-04-26 20:38 | -31.38800 | -54.10915 | 595 ft | 7 kts | 42° |
| 2026-04-26 20:38 | -31.38766 | -54.10873 | 594 ft | 11 kts | 50° |
| 2026-04-26 20:39 | -31.38692 | -54.10778 | 595 ft | 16 kts | 47° |
| 2026-04-26 20:39 | -31.38628 | -54.10688 | 596 ft | 13 kts | 70° |
| 2026-04-26 20:39 | -31.38607 | -54.10673 | 596 ft | 3 kts | 222° |
| 2026-04-26 20:39 | -31.38628 | -54.10697 | 596 ft | 0 kts | 226° |
| 2026-04-26 20:41 | -31.38640 | -54.10711 | 596 ft | 16 kts | 225° |
| 2026-04-26 20:42 | -31.38899 | -54.11035 | 622 ft | 84 kts | 234° |
| 2026-04-26 20:42 | -31.39367 | -54.11581 | 760 ft | 109 kts | 231° |
| 2026-04-26 20:42 | -31.39879 | -54.12161 | 1132 ft | 106 kts | 227° |
| 2026-04-26 20:42 | -31.40486 | -54.12797 | 1265 ft | 115 kts | 213° |
| 2026-04-26 20:43 | -31.41255 | -54.12829 | 1688 ft | 114 kts | 175° |
| 2026-04-26 20:43 | -31.42028 | -54.12422 | 1930 ft | 122 kts | 161° |
| 2026-04-26 20:43 | -31.42665 | -54.11818 | 2274 ft | 128 kts | 125° |
| 2026-04-26 20:43 | -31.42906 | -54.10724 | 2381 ft | 148 kts | 98° |
| 2026-04-26 20:44 | -31.43049 | -54.09464 | 2514 ft | 156 kts | 96° |
| 2026-04-26 20:44 | -31.42978 | -54.08274 | 2782 ft | 150 kts | 73° |
| 2026-04-26 20:44 | -31.42686 | -54.07061 | 3016 ft | 151 kts | 68° |
| 2026-04-26 20:44 | -31.42425 | -54.05852 | 3230 ft | 153 kts | 81° |
| 2026-04-26 20:45 | -31.42548 | -54.04628 | 3448 ft | 154 kts | 106° |
| 2026-04-26 20:45 | -31.42784 | -54.03406 | 3687 ft | 152 kts | 99° |
| 2026-04-26 20:45 | -31.42939 | -54.02147 | 3840 ft | 161 kts | 98° |
| 2026-04-26 20:45 | -31.43098 | -54.00820 | 3990 ft | 166 kts | 104° |
| 2026-04-26 20:46 | -31.43398 | -53.99503 | 4143 ft | 169 kts | 108° |
| 2026-04-26 20:46 | -31.43710 | -53.98161 | 4305 ft | 171 kts | 108° |
| 2026-04-26 20:46 | -31.44020 | -53.96806 | 4457 ft | 174 kts | 108° |
| 2026-04-26 20:46 | -31.44324 | -53.95428 | 4611 ft | 176 kts | 108° |
| 2026-04-26 20:47 | -31.44640 | -53.94031 | 4764 ft | 177 kts | 108° |
| 2026-04-26 20:47 | -31.44850 | -53.93109 | 4858 ft | 177 kts | 108° |
| 2026-04-26 20:47 | -31.45273 | -53.91235 | 5059 ft | 178 kts | 108° |
| 2026-04-26 20:47 | -31.45600 | -53.89796 | 5210 ft | 178 kts | 108° |
| 2026-04-26 20:48 | -31.45921 | -53.88391 | 5360 ft | 179 kts | 108° |
| 2026-04-26 20:48 | -31.46232 | -53.86980 | 5514 ft | 179 kts | 108° |
| 2026-04-26 20:48 | -31.46502 | -53.85542 | 5663 ft | 182 kts | 103° |
| 2026-04-26 20:48 | -31.46656 | -53.84499 | 5771 ft | 182 kts | 104° |
| 2026-04-26 20:49 | -31.46880 | -53.83164 | 5905 ft | 182 kts | 105° |
| 2026-04-26 20:49 | -31.47174 | -53.81530 | 6077 ft | 182 kts | 105° |
| 2026-04-26 20:49 | -31.47470 | -53.79892 | 6250 ft | 183 kts | 105° |
| 2026-04-26 20:49 | -31.47694 | -53.78646 | 6375 ft | 183 kts | 105° |
| 2026-04-26 20:50 | -31.47939 | -53.77289 | 6505 ft | 183 kts | 105° |
| 2026-04-26 20:50 | -31.48246 | -53.75582 | 6670 ft | 181 kts | 106° |
| 2026-04-26 20:50 | -31.48504 | -53.74149 | 6815 ft | 180 kts | 107° |
| 2026-04-26 20:50 | -31.48756 | -53.72737 | 6955 ft | 179 kts | 107° |
| 2026-04-26 20:51 | -31.49022 | -53.71254 | 7104 ft | 179 kts | 106° |
| 2026-04-26 20:51 | -31.49286 | -53.69782 | 7253 ft | 180 kts | 106° |
| 2026-04-26 20:51 | -31.49541 | -53.68344 | 7401 ft | 180 kts | 106° |
| 2026-04-26 20:51 | -31.49781 | -53.66903 | 7548 ft | 180 kts | 106° |
| 2026-04-26 20:52 | -31.49944 | -53.65930 | 7646 ft | 181 kts | 106° |
| 2026-04-26 20:52 | -31.50206 | -53.64373 | 7809 ft | 182 kts | 107° |
| 2026-04-26 20:52 | -31.50461 | -53.62861 | 7960 ft | 183 kts | 107° |
| 2026-04-26 20:52 | -31.50708 | -53.61391 | 8111 ft | 184 kts | 107° |
| 2026-04-26 20:53 | -31.50954 | -53.59923 | 8264 ft | 183 kts | 107° |
| 2026-04-26 20:53 | -31.51200 | -53.58457 | 8415 ft | 183 kts | 107° |
| 2026-04-26 20:53 | -31.51445 | -53.56996 | 8562 ft | 182 kts | 107° |
| 2026-04-26 20:53 | -31.51689 | -53.55548 | 8713 ft | 181 kts | 108° |
| 2026-04-26 20:54 | -31.51932 | -53.54096 | 8861 ft | 181 kts | 108° |
| 2026-04-26 20:54 | -31.52176 | -53.52644 | 9017 ft | 182 kts | 108° |
| 2026-04-26 20:54 | -31.52421 | -53.51188 | 9169 ft | 183 kts | 108° |
| 2026-04-26 20:54 | -31.52662 | -53.49744 | 9326 ft | 183 kts | 108° |
| 2026-04-26 20:55 | -31.52912 | -53.48251 | 9393 ft | 188 kts | 108° |
| 2026-04-26 20:55 | -31.53171 | -53.46735 | 9397 ft | 196 kts | 108° |
| 2026-04-26 20:55 | -31.53437 | -53.45145 | 9403 ft | 201 kts | 107° |
| 2026-04-26 20:55 | -31.53710 | -53.43498 | 9398 ft | 206 kts | 107° |
| 2026-04-26 20:56 | -31.53982 | -53.41864 | 9400 ft | 209 kts | 107° |
| 2026-04-26 20:56 | -31.54262 | -53.40185 | 9394 ft | 211 kts | 107° |
| 2026-04-26 20:56 | -31.54469 | -53.38490 | 9391 ft | 214 kts | 95° |
| 2026-04-26 20:56 | -31.54428 | -53.36726 | 9394 ft | 215 kts | 89° |
| 2026-04-26 20:57 | -31.54360 | -53.34970 | 9397 ft | 215 kts | 90° |
| 2026-04-26 20:57 | -31.54320 | -53.33224 | 9394 ft | 215 kts | 91° |
| 2026-04-26 20:57 | -31.54282 | -53.31419 | 9394 ft | 214 kts | 91° |
| 2026-04-26 20:57 | -31.54240 | -53.29612 | 9397 ft | 214 kts | 91° |
| 2026-04-26 20:58 | -31.54199 | -53.27868 | 9395 ft | 214 kts | 91° |
| 2026-04-26 20:58 | -31.54158 | -53.26118 | 9396 ft | 215 kts | 90° |
| 2026-04-26 20:58 | -31.54114 | -53.24369 | 9391 ft | 214 kts | 90° |
| 2026-04-26 20:58 | -31.54074 | -53.22627 | 9393 ft | 213 kts | 91° |
| 2026-04-26 20:59 | -31.54031 | -53.20895 | 9385 ft | 212 kts | 91° |
| 2026-04-26 20:59 | -31.53989 | -53.19124 | 9386 ft | 211 kts | 91° |
| 2026-04-26 20:59 | -31.53947 | -53.17390 | 9383 ft | 211 kts | 91° |
| 2026-04-26 20:59 | -31.53916 | -53.16121 | 9383 ft | 211 kts | 91° |
| 2026-04-26 21:00 | -31.53868 | -53.14145 | 9389 ft | 212 kts | 90° |
| 2026-04-26 21:00 | -31.53824 | -53.12412 | 9391 ft | 213 kts | 90° |
| 2026-04-26 21:00 | -31.53781 | -53.10683 | 9388 ft | 213 kts | 91° |
| 2026-04-26 21:00 | -31.53739 | -53.08956 | 9383 ft | 213 kts | 91° |
| 2026-04-26 21:01 | -31.53690 | -53.07003 | 9383 ft | 212 kts | 90° |
| 2026-04-26 21:01 | -31.53680 | -53.06612 | 9382 ft | 212 kts | 91° |
| 2026-04-26 21:02 | -31.53647 | -53.05339 | 9391 ft | 212 kts | 90° |
| 2026-04-26 21:02 | -31.53592 | -53.03161 | 9391 ft | 212 kts | 90° |
| 2026-04-26 21:03 | -31.53548 | -53.01438 | 9394 ft | 212 kts | 90° |
| 2026-04-26 21:03 | -31.53504 | -52.99736 | 9392 ft | 211 kts | 90° |
| 2026-04-26 21:03 | -31.53459 | -52.97997 | 9386 ft | 211 kts | 90° |
| 2026-04-26 21:03 | -31.53414 | -52.96280 | 9389 ft | 211 kts | 90° |
| 2026-04-26 21:04 | -31.53371 | -52.94580 | 9386 ft | 212 kts | 90° |
| 2026-04-26 21:04 | -31.53325 | -52.92852 | 9388 ft | 212 kts | 90° |
| 2026-04-26 21:04 | -31.53285 | -52.91330 | 9385 ft | 212 kts | 90° |
| 2026-04-26 21:04 | -31.53231 | -52.89279 | 9391 ft | 212 kts | 90° |
| 2026-04-26 21:05 | -31.53186 | -52.87556 | 9390 ft | 211 kts | 90° |
| 2026-04-26 21:05 | -31.53143 | -52.85969 | 9390 ft | 211 kts | 90° |
| 2026-04-26 21:05 | -31.53096 | -52.84241 | 9389 ft | 210 kts | 90° |
| 2026-04-26 21:05 | -31.53049 | -52.82534 | 9378 ft | 209 kts | 90° |
| 2026-04-26 21:06 | -31.53002 | -52.80837 | 9383 ft | 208 kts | 90° |
| 2026-04-26 21:06 | -31.52957 | -52.79144 | 9381 ft | 208 kts | 90° |
| 2026-04-26 21:06 | -31.52909 | -52.77375 | 9379 ft | 209 kts | 90° |
| 2026-04-26 21:06 | -31.52877 | -52.76183 | 9377 ft | 209 kts | 89° |
| 2026-04-26 21:07 | -31.52824 | -52.74270 | 9248 ft | 216 kts | 90° |
| 2026-04-26 21:07 | -31.52776 | -52.72490 | 9128 ft | 221 kts | 90° |
| 2026-04-26 21:07 | -31.52724 | -52.70674 | 9002 ft | 223 kts | 90° |
| 2026-04-26 21:07 | -31.52675 | -52.68855 | 8877 ft | 224 kts | 90° |
| 2026-04-26 21:08 | -31.52623 | -52.67032 | 8752 ft | 225 kts | 89° |
| 2026-04-26 21:08 | -31.52570 | -52.65197 | 8620 ft | 225 kts | 89° |
| 2026-04-26 21:08 | -31.52518 | -52.63362 | 8499 ft | 226 kts | 89° |
| 2026-04-26 21:08 | -31.52465 | -52.61518 | 8369 ft | 225 kts | 89° |
| 2026-04-26 21:09 | -31.52414 | -52.59685 | 8244 ft | 224 kts | 89° |
| 2026-04-26 21:09 | -31.52366 | -52.57905 | 8111 ft | 213 kts | 89° |
| 2026-04-26 21:09 | -31.52313 | -52.56229 | 7975 ft | 206 kts | 89° |
| 2026-04-26 21:09 | -31.52263 | -52.54572 | 7846 ft | 201 kts | 89° |
| 2026-04-26 21:10 | -31.52214 | -52.52930 | 7716 ft | 197 kts | 89° |
| 2026-04-26 21:10 | -31.52169 | -52.51334 | 7586 ft | 195 kts | 89° |
| 2026-04-26 21:10 | -31.52119 | -52.49751 | 7463 ft | 194 kts | 89° |
| 2026-04-26 21:10 | -31.52085 | -52.48578 | 7369 ft | 193 kts | 89° |
| 2026-04-26 21:11 | -31.52054 | -52.47509 | 7287 ft | 193 kts | 88° |
| 2026-04-26 21:11 | -31.52000 | -52.45729 | 7145 ft | 191 kts | 88° |
| 2026-04-26 21:11 | -31.51945 | -52.43881 | 7002 ft | 191 kts | 88° |
| 2026-04-26 21:11 | -31.51890 | -52.42050 | 6794 ft | 193 kts | 88° |
| 2026-04-26 21:12 | -31.51843 | -52.40435 | 6446 ft | 203 kts | 88° |
| 2026-04-26 21:12 | -31.51793 | -52.38711 | 6080 ft | 210 kts | 87° |
| 2026-04-26 21:12 | -31.51749 | -52.37271 | 5770 ft | 212 kts | 87° |
| 2026-04-26 21:12 | -31.51696 | -52.35528 | 5400 ft | 214 kts | 87° |
| 2026-04-26 21:13 | -31.51646 | -52.33802 | 5023 ft | 207 kts | 88° |
| 2026-04-26 21:13 | -31.51593 | -52.32159 | 4650 ft | 202 kts | 87° |
| 2026-04-26 21:13 | -31.51542 | -52.30611 | 4298 ft | 200 kts | 88° |
| 2026-04-26 21:13 | -31.51484 | -52.28724 | 3855 ft | 194 kts | 87° |
| 2026-04-26 21:14 | -31.51434 | -52.27185 | 3709 ft | 179 kts | 87° |
| 2026-04-26 21:14 | -31.51388 | -52.25806 | 3700 ft | 160 kts | 86° |
| 2026-04-26 21:14 | -31.51347 | -52.24565 | 3696 ft | 145 kts | 85° |
| 2026-04-26 21:14 | -31.51304 | -52.23418 | 3704 ft | 143 kts | 83° |
| 2026-04-26 21:15 | -31.51259 | -52.22207 | 3680 ft | 156 kts | 87° |
| 2026-04-26 21:15 | -31.51429 | -52.20911 | 3568 ft | 167 kts | 119° |
| 2026-04-26 21:15 | -31.52218 | -52.19939 | 3461 ft | 165 kts | 160° |
| 2026-04-26 21:15 | -31.53297 | -52.19679 | 3359 ft | 158 kts | 188° |
| 2026-04-26 21:16 | -31.54410 | -52.19433 | 3248 ft | 169 kts | 170° |
| 2026-04-26 21:16 | -31.55522 | -52.18965 | 3131 ft | 168 kts | 168° |
| 2026-04-26 21:16 | -31.56675 | -52.18470 | 2983 ft | 163 kts | 168° |
| 2026-04-26 21:16 | -31.57692 | -52.18039 | 2770 ft | 166 kts | 168° |
| 2026-04-26 21:17 | -31.58581 | -52.17664 | 2588 ft | 167 kts | 168° |
| 2026-04-26 21:17 | -31.59872 | -52.17135 | 2331 ft | 165 kts | 175° |
| 2026-04-26 21:17 | -31.60926 | -52.17237 | 2209 ft | 141 kts | 215° |
| 2026-04-26 21:17 | -31.61520 | -52.17980 | 2204 ft | 117 kts | 255° |
| 2026-04-26 21:18 | -31.61837 | -52.18819 | 2203 ft | 113 kts | 240° |
| 2026-04-26 21:18 | -31.62330 | -52.19522 | 2200 ft | 110 kts | 239° |
| 2026-04-26 21:18 | -31.62800 | -52.20206 | 2198 ft | 108 kts | 239° |
| 2026-04-26 21:18 | -31.63268 | -52.20897 | 2201 ft | 105 kts | 239° |
| 2026-04-26 21:19 | -31.63713 | -52.21551 | 2197 ft | 103 kts | 239° |
| 2026-04-26 21:19 | -31.64156 | -52.22203 | 2200 ft | 101 kts | 239° |
| 2026-04-26 21:19 | -31.64585 | -52.22834 | 2220 ft | 97 kts | 239° |
| 2026-04-26 21:19 | -31.65008 | -52.23453 | 2220 ft | 97 kts | 239° |
| 2026-04-26 21:20 | -31.65426 | -52.24066 | 2214 ft | 96 kts | 240° |
| 2026-04-26 21:20 | -31.65853 | -52.24693 | 2087 ft | 105 kts | 240° |
| 2026-04-26 21:20 | -31.66332 | -52.25405 | 1856 ft | 116 kts | 238° |
| 2026-04-26 21:20 | -31.66831 | -52.26128 | 1650 ft | 112 kts | 239° |
| 2026-04-26 21:21 | -31.67332 | -52.26839 | 1402 ft | 116 kts | 232° |
| 2026-04-26 21:21 | -31.68022 | -52.27435 | 1111 ft | 124 kts | 221° |
| 2026-04-26 21:21 | -31.68614 | -52.28094 | 1024 ft | 113 kts | 238° |
| 2026-04-26 21:21 | -31.69060 | -52.28821 | 953 ft | 106 kts | 240° |
| 2026-04-26 21:22 | -31.69484 | -52.29518 | 797 ft | 103 kts | 235° |
| 2026-04-26 21:22 | -31.69928 | -52.30175 | 620 ft | 97 kts | 237° |
| 2026-04-26 21:22 | -31.70335 | -52.30757 | 426 ft | 91 kts | 235° |
| 2026-04-26 21:23 | -31.71068 | -52.31830 | 128 ft | 77 kts | 236° |
| 2026-04-26 21:23 | -31.71380 | -52.32282 | 64 ft | 61 kts | 237° |
| 2026-04-26 21:23 | -31.71540 | -52.32537 | 63 ft | 24 kts | 232° |
| 2026-04-26 21:23 | -31.71625 | -52.32665 | 63 ft | 17 kts | 226° |
| 2026-04-26 21:24 | -31.71692 | -52.32755 | 62 ft | 13 kts | 227° |
| 2026-04-26 21:24 | -31.71742 | -52.32825 | 62 ft | 10 kts | 232° |
| 2026-04-26 21:24 | -31.71776 | -52.32875 | 62 ft | 6 kts | 231° |
| 2026-04-26 21:24 | -31.71809 | -52.32937 | 63 ft | 11 kts | 270° |
| 2026-04-26 21:25 | -31.71771 | -52.32993 | 60 ft | 6 kts | 320° |
| 2026-04-26 21:25 | -31.71770 | -52.32994 | 60 ft | 0 kts | 320° |
| 2026-04-26 21:25 | -31.71758 | -52.33006 | 64 ft | 10 kts | 320° |
| 2026-04-26 21:26 | -31.71701 | -52.33059 | 65 ft | 9 kts | 330° |
| 2026-04-26 21:26 | -31.71647 | -52.33056 | 65 ft | 8 kts | 39° |
| 2026-04-26 21:26 | -31.71626 | -52.33026 | 61 ft | 7 kts | 56° |
| 2026-04-26 21:26 | -31.71601 | -52.32988 | 65 ft | 5 kts | 51° |
| 2026-04-26 21:27 | -31.71599 | -52.32985 | 65 ft | 0 kts | 50° |